createdAt,value
2023-05-16T00:02:07.710Z,12.20
2023-05-16T00:04:34.806Z,12.20
2023-05-16T00:07:01.647Z,12.20
2023-05-16T00:09:28.515Z,12.20
2023-05-16T00:11:55.344Z,12.20
2023-05-16T00:14:22.123Z,12.20
2023-05-16T00:16:49.029Z,12.20
2023-05-16T00:19:16.045Z,12.20
2023-05-16T00:21:44.921Z,12.10
2023-05-16T00:24:11.760Z,12.10
2023-05-16T00:26:38.524Z,12.10
2023-05-16T00:29:05.489Z,12.10
2023-05-16T00:31:32.427Z,12.10
2023-05-16T00:33:59.229Z,12.10
2023-05-16T00:36:26.080Z,12.10
2023-05-16T00:38:52.878Z,12.00
2023-05-16T00:41:19.819Z,12.00
2023-05-16T00:43:46.634Z,12.00
2023-05-16T00:46:13.572Z,12.00
2023-05-16T00:48:40.706Z,12.00
2023-05-16T00:51:09.623Z,12.00
2023-05-16T00:53:37.342Z,12.00
2023-05-16T00:56:06.302Z,11.90
2023-05-16T00:58:34.162Z,11.90
2023-05-16T01:01:04.009Z,11.90
2023-05-16T01:03:31.685Z,11.90
2023-05-16T01:05:58.929Z,11.90
2023-05-16T01:08:25.591Z,11.90
2023-05-16T01:11:21.021Z,11.90
2023-05-16T01:14:12.249Z,11.90
2023-05-16T01:17:18.326Z,11.90
2023-05-16T01:20:06.436Z,11.90
2023-05-16T01:22:33.514Z,11.80
2023-05-16T01:25:11.896Z,11.80
2023-05-16T01:27:39.283Z,11.80
2023-05-16T01:30:17.684Z,11.80
2023-05-16T01:32:44.764Z,11.80
2023-05-16T01:35:14.395Z,11.80
2023-05-16T01:37:58.681Z,11.80
2023-05-16T01:41:04.408Z,11.80
2023-05-16T01:43:35.688Z,11.70
2023-05-16T01:46:16.759Z,11.70
2023-05-16T01:49:07.513Z,11.70
2023-05-16T01:51:38.879Z,11.70
2023-05-16T01:54:09.350Z,11.70
2023-05-16T01:56:38.260Z,11.70
2023-05-16T01:59:06.479Z,11.70
2023-05-16T02:01:33.767Z,11.70
2023-05-16T02:04:00.729Z,11.70
2023-05-16T02:06:27.628Z,11.70
2023-05-16T02:08:54.497Z,11.60
2023-05-16T02:11:22.266Z,11.60
2023-05-16T02:13:49.096Z,11.60
2023-05-16T02:16:16.008Z,11.60
2023-05-16T02:18:43.197Z,11.60
2023-05-16T02:21:10.046Z,11.60
2023-05-16T02:23:36.979Z,11.60
2023-05-16T02:26:04.564Z,11.60
2023-05-16T02:28:31.184Z,11.60
2023-05-16T02:30:59.614Z,11.60
2023-05-16T02:33:27.605Z,11.60
2023-05-16T02:35:55.761Z,11.50
2023-05-16T02:38:22.610Z,11.50
2023-05-16T02:40:49.586Z,11.50
2023-05-16T02:43:16.458Z,11.50
2023-05-16T02:45:43.627Z,11.50
2023-05-16T02:48:10.574Z,11.50
2023-05-16T02:50:37.763Z,11.50
2023-05-16T02:53:04.799Z,11.50
2023-05-16T02:55:31.605Z,11.50
2023-05-16T02:57:58.464Z,11.50
2023-05-16T03:00:25.234Z,11.50
2023-05-16T03:02:52.091Z,11.50
2023-05-16T03:05:19.177Z,11.50
2023-05-16T03:07:46.146Z,11.40
2023-05-16T03:10:12.953Z,11.40
2023-05-16T03:12:39.885Z,11.40
2023-05-16T03:15:08.430Z,11.40
2023-05-16T03:17:35.354Z,11.40
2023-05-16T03:20:02.309Z,11.40
2023-05-16T03:22:28.977Z,11.40
2023-05-16T03:24:56.608Z,11.40
2023-05-16T03:27:23.406Z,11.40
2023-05-16T03:29:50.259Z,11.30
2023-05-16T03:32:16.946Z,11.40
2023-05-16T03:34:43.754Z,11.30
2023-05-16T03:37:11.229Z,11.30
2023-05-16T03:39:38.092Z,11.30
2023-05-16T03:42:05.092Z,11.30
2023-05-16T03:44:31.860Z,11.30
2023-05-16T03:46:58.877Z,11.30
2023-05-16T03:49:30.346Z,11.30
2023-05-16T03:51:57.629Z,11.30
2023-05-16T03:54:24.324Z,11.30
2023-05-16T03:56:51.095Z,11.30
2023-05-16T03:59:17.863Z,11.20
2023-05-16T04:01:44.716Z,11.20
2023-05-16T04:04:11.416Z,11.20
2023-05-16T04:06:38.246Z,11.20
2023-05-16T04:09:06.652Z,11.20
2023-05-16T04:11:34.275Z,11.20
2023-05-16T04:14:01.993Z,11.20
2023-05-16T04:16:29.004Z,11.20
2023-05-16T04:18:56.534Z,11.20
2023-05-16T04:21:23.566Z,11.20
2023-05-16T04:23:50.267Z,11.20
2023-05-16T04:26:17.056Z,11.20
2023-05-16T04:28:43.978Z,11.20
2023-05-16T04:31:11.491Z,11.20
2023-05-16T04:33:38.662Z,11.20
2023-05-16T04:36:06.252Z,11.20
2023-05-16T04:38:33.262Z,11.20
2023-05-16T04:41:00.179Z,11.20
2023-05-16T04:43:27.175Z,11.20
2023-05-16T04:45:54.279Z,11.20
2023-05-16T04:48:21.020Z,11.20
2023-05-16T04:50:47.833Z,11.20
2023-05-16T04:53:15.169Z,11.20
2023-05-16T04:55:42.058Z,11.20
2023-05-16T04:58:08.826Z,11.30
2023-05-16T05:00:35.998Z,11.30
2023-05-16T05:03:02.822Z,11.30
2023-05-16T05:05:30.159Z,11.30
2023-05-16T05:07:58.906Z,11.30
2023-05-16T05:10:25.622Z,11.30
2023-05-16T05:12:52.445Z,11.30
2023-05-16T05:15:19.608Z,11.30
2023-05-16T05:17:46.548Z,11.30
2023-05-16T05:20:13.620Z,11.30
2023-05-16T05:22:40.608Z,11.30
2023-05-16T05:25:08.530Z,11.30
2023-05-16T05:27:35.657Z,11.30
2023-05-16T05:30:04.106Z,11.40
2023-05-16T05:32:31.286Z,11.40
2023-05-16T05:34:58.244Z,11.40
2023-05-16T05:37:25.597Z,11.40
2023-05-16T05:39:52.473Z,11.40
2023-05-16T05:42:19.338Z,11.40
2023-05-16T05:44:46.154Z,11.40
2023-05-16T05:47:12.978Z,11.50
2023-05-16T05:49:39.903Z,11.50
2023-05-16T05:52:06.862Z,11.60
2023-05-16T05:54:33.921Z,11.50
2023-05-16T05:57:00.901Z,11.50
2023-05-16T05:59:27.732Z,11.60
2023-05-16T06:01:54.644Z,11.60
2023-05-16T06:04:22.052Z,11.60
2023-05-16T06:06:48.825Z,11.60
2023-05-16T06:09:15.673Z,11.70
2023-05-16T06:11:43.405Z,11.70
2023-05-16T06:14:10.195Z,11.70
2023-05-16T06:16:36.960Z,11.80
2023-05-16T06:19:04.399Z,11.80
2023-05-16T06:21:31.202Z,11.90
2023-05-16T06:23:57.831Z,12.00
2023-05-16T06:26:24.707Z,12.00
2023-05-16T06:28:51.497Z,12.00
2023-05-16T06:31:18.224Z,12.10
2023-05-16T06:33:45.023Z,12.20
2023-05-16T06:36:11.989Z,12.20
2023-05-16T06:38:38.690Z,12.30
2023-05-16T06:41:05.290Z,12.40
2023-05-16T06:43:32.048Z,12.50
2023-05-16T06:45:58.852Z,12.50
2023-05-16T06:48:25.684Z,12.60
2023-05-16T06:50:52.626Z,12.70
2023-05-16T06:53:19.698Z,12.80
2023-05-16T06:55:47.223Z,12.90
2023-05-16T06:58:14.048Z,13.00
2023-05-16T07:00:41.804Z,13.00
2023-05-16T07:03:08.910Z,13.10
2023-05-16T07:05:35.969Z,13.20
2023-05-16T07:08:04.205Z,13.30
2023-05-16T07:10:32.583Z,13.40
2023-05-16T07:13:01.675Z,13.50
2023-05-16T07:15:29.020Z,13.50
2023-05-16T07:17:56.222Z,13.60
2023-05-16T07:20:23.730Z,13.80
2023-05-16T07:22:50.675Z,13.80
2023-05-16T07:25:18.594Z,13.80
2023-05-16T07:27:45.648Z,13.80
2023-05-16T07:30:13.544Z,13.80
2023-05-16T07:32:41.216Z,14.00
2023-05-16T07:35:08.520Z,14.00
2023-05-16T07:37:36.129Z,14.00
2023-05-16T07:40:03.948Z,14.00
2023-05-16T07:42:31.733Z,14.00
2023-05-16T07:44:58.768Z,14.10
2023-05-16T07:47:26.066Z,14.20
2023-05-16T07:49:53.253Z,14.30
2023-05-16T07:52:20.396Z,14.40
2023-05-16T07:54:47.868Z,14.60
2023-05-16T07:57:16.088Z,14.70
2023-05-16T07:59:44.019Z,14.70
2023-05-16T08:02:11.670Z,14.90
2023-05-16T08:04:38.932Z,15.00
2023-05-16T08:07:06.232Z,15.00
2023-05-16T08:09:33.471Z,15.00
2023-05-16T08:12:03.818Z,15.20
2023-05-16T08:14:33.056Z,15.30
2023-05-16T08:17:00.905Z,15.40
2023-05-16T08:19:28.170Z,15.50
2023-05-16T08:21:55.400Z,15.70
2023-05-16T08:24:22.233Z,15.80
2023-05-16T08:26:49.107Z,16.00
2023-05-16T08:29:16.031Z,16.10
2023-05-16T08:31:42.971Z,16.20
2023-05-16T08:34:10.518Z,16.20
2023-05-16T08:36:38.231Z,16.20
2023-05-16T08:39:05.547Z,16.30
2023-05-16T08:41:32.476Z,16.30
2023-05-16T08:43:59.534Z,16.50
2023-05-16T08:46:29.244Z,16.70
2023-05-16T08:48:59.713Z,16.70
2023-05-16T08:51:28.817Z,16.80
2023-05-16T08:54:03.540Z,16.90
2023-05-16T08:56:31.712Z,17.00
2023-05-16T08:58:59.045Z,17.00
2023-05-16T09:01:26.182Z,17.10
2023-05-16T09:03:53.850Z,17.10
2023-05-16T09:06:20.775Z,17.30
2023-05-16T09:08:47.627Z,17.40
2023-05-16T09:11:14.337Z,17.50
2023-05-16T09:13:41.038Z,17.60
2023-05-16T09:16:16.149Z,17.80
2023-05-16T09:18:53.883Z,17.90
2023-05-16T09:21:21.035Z,18.00
2023-05-16T09:23:50.201Z,18.00
2023-05-16T09:26:18.088Z,18.20
2023-05-16T09:28:45.349Z,18.30
2023-05-16T09:31:23.000Z,18.40
2023-05-16T09:33:50.814Z,18.40
2023-05-16T09:36:17.729Z,18.50
2023-05-16T09:38:45.098Z,18.70
2023-05-16T09:41:11.996Z,18.80
2023-05-16T09:43:41.981Z,19.10
2023-05-16T09:46:09.046Z,19.00
2023-05-16T09:48:36.490Z,19.20
2023-05-16T09:51:06.416Z,19.10
2023-05-16T09:53:33.915Z,19.30
2023-05-16T09:56:05.658Z,19.30
2023-05-16T09:58:34.932Z,19.40
2023-05-16T10:01:02.753Z,19.60
2023-05-16T10:03:29.771Z,19.60
2023-05-16T10:05:57.166Z,19.70
2023-05-16T10:08:27.451Z,19.70
2023-05-16T10:10:55.842Z,19.90
2023-05-16T10:13:25.946Z,19.90
2023-05-16T10:15:56.362Z,20.00
2023-05-16T10:18:25.168Z,20.00
2023-05-16T10:20:55.340Z,20.20
2023-05-16T10:23:22.718Z,20.20
2023-05-16T10:25:50.086Z,20.20
2023-05-16T10:28:17.029Z,20.30
2023-05-16T10:30:46.900Z,20.40
2023-05-16T10:33:16.126Z,20.60
2023-05-16T10:35:43.882Z,20.60
2023-05-16T10:38:12.817Z,20.70
2023-05-16T10:40:40.939Z,20.90
2023-05-16T10:43:08.938Z,20.90
2023-05-16T10:45:40.400Z,20.90
2023-05-16T10:48:10.117Z,21.10
2023-05-16T10:50:44.583Z,21.10
2023-05-16T10:53:20.908Z,21.20
2023-05-16T10:56:00.987Z,21.50
2023-05-16T10:58:35.225Z,21.30
2023-05-16T11:01:22.370Z,21.40
2023-05-16T11:04:00.941Z,21.40
2023-05-16T11:06:35.325Z,21.40
2023-05-16T11:09:11.076Z,21.60
2023-05-16T11:11:48.610Z,21.70
2023-05-16T11:14:24.136Z,21.80
2023-05-16T11:17:13.785Z,21.90
2023-05-16T11:19:51.250Z,22.10
2023-05-16T11:22:21.908Z,22.00
2023-05-16T11:25:02.190Z,22.00
2023-05-16T11:27:28.856Z,22.30
2023-05-16T11:30:02.013Z,22.20
2023-05-16T11:32:31.130Z,22.10
2023-05-16T11:34:58.361Z,22.30
2023-05-16T11:37:25.490Z,22.40
2023-05-16T11:39:52.390Z,22.30
2023-05-16T11:42:19.197Z,22.40
2023-05-16T11:44:46.029Z,22.40
2023-05-16T11:47:12.906Z,22.60
2023-05-16T11:49:39.746Z,22.60
2023-05-16T11:52:08.540Z,22.40
2023-05-16T11:54:35.524Z,22.70
2023-05-16T11:57:03.234Z,22.80
2023-05-16T11:59:30.114Z,22.80
2023-05-16T12:01:56.917Z,23.10
2023-05-16T12:04:23.849Z,22.90
2023-05-16T12:06:59.997Z,22.90
2023-05-16T12:09:26.802Z,23.10
2023-05-16T12:11:53.656Z,23.10
2023-05-16T12:14:20.702Z,23.00
2023-05-16T12:16:50.298Z,23.10
2023-05-16T12:19:17.272Z,23.10
2023-05-16T12:21:44.007Z,23.60
2023-05-16T12:24:12.966Z,23.50
2023-05-16T12:26:42.535Z,23.60
2023-05-16T12:29:11.532Z,23.70
2023-05-16T12:31:40.593Z,23.60
2023-05-16T12:34:17.808Z,23.70
2023-05-16T12:36:44.625Z,23.50
2023-05-16T12:39:13.140Z,23.60
2023-05-16T12:41:43.432Z,23.80
2023-05-16T12:44:14.848Z,23.80
2023-05-16T12:46:46.250Z,24.00
2023-05-16T12:49:13.711Z,23.90
2023-05-16T12:51:48.671Z,23.90
2023-05-16T12:54:15.392Z,24.00
2023-05-16T12:56:42.186Z,24.10
2023-05-16T12:59:09.052Z,24.00
2023-05-16T13:01:36.983Z,24.00
2023-05-16T13:04:05.196Z,24.30
2023-05-16T13:06:44.833Z,24.00
2023-05-16T13:09:12.661Z,24.40
2023-05-16T13:11:39.353Z,24.40
2023-05-16T13:14:06.108Z,24.50
2023-05-16T13:16:32.829Z,24.50
2023-05-16T13:18:59.982Z,24.50
2023-05-16T13:21:28.195Z,24.40
2023-05-16T13:23:55.010Z,24.40
2023-05-16T13:26:22.528Z,24.50
2023-05-16T13:28:53.044Z,24.80
2023-05-16T13:31:19.866Z,24.70
2023-05-16T13:33:46.548Z,24.50
2023-05-16T13:36:13.336Z,24.80
2023-05-16T13:38:40.354Z,24.80
2023-05-16T13:41:07.251Z,24.80
2023-05-16T13:43:34.194Z,24.90
2023-05-16T13:46:01.209Z,24.90
2023-05-16T13:48:27.867Z,24.90
2023-05-16T13:50:55.810Z,25.10
2023-05-16T13:53:22.460Z,24.40
2023-05-16T13:55:49.073Z,24.90
2023-05-16T13:58:16.059Z,25.00
2023-05-16T14:00:46.078Z,25.00
2023-05-16T14:03:13.341Z,25.00
2023-05-16T14:05:40.161Z,25.20
2023-05-16T14:08:07.848Z,25.00
2023-05-16T14:10:34.486Z,25.10
2023-05-16T14:13:01.108Z,25.20
2023-05-16T14:15:27.994Z,25.20
2023-05-16T14:17:54.855Z,25.20
2023-05-16T14:20:21.635Z,25.20
2023-05-16T14:22:48.313Z,25.20
2023-05-16T14:25:15.004Z,25.10
2023-05-16T14:27:41.676Z,25.20
2023-05-16T14:30:09.618Z,25.30
2023-05-16T14:32:36.474Z,25.00
2023-05-16T14:35:05.469Z,25.20
2023-05-16T14:37:32.124Z,24.90
2023-05-16T14:39:59.764Z,25.10
2023-05-16T14:42:26.734Z,25.20
2023-05-16T14:44:53.411Z,25.30
2023-05-16T14:47:20.398Z,25.30
2023-05-16T14:49:47.180Z,25.20
2023-05-16T14:52:14.374Z,25.20
2023-05-16T14:54:41.118Z,25.20
2023-05-16T14:57:08.264Z,25.20
2023-05-16T14:59:34.982Z,25.10
2023-05-16T15:02:01.897Z,25.10
2023-05-16T15:04:29.108Z,25.10
2023-05-16T15:06:56.071Z,25.10
2023-05-16T15:09:23.001Z,25.10
2023-05-16T15:11:49.674Z,25.00
2023-05-16T15:14:17.206Z,25.00
2023-05-16T15:16:44.853Z,25.00
2023-05-16T15:19:13.181Z,25.00
2023-05-16T15:21:40.168Z,25.00
2023-05-16T15:24:08.332Z,25.00
2023-05-16T15:26:35.631Z,24.90
2023-05-16T15:29:02.532Z,24.80
2023-05-16T15:31:31.582Z,24.80
2023-05-16T15:33:58.454Z,24.80
2023-05-16T15:36:25.653Z,24.80
2023-05-16T15:38:53.191Z,24.80
2023-05-16T15:41:43.239Z,24.70
2023-05-16T15:44:07.826Z,24.70
2023-05-16T15:46:34.532Z,24.70
2023-05-16T15:49:01.333Z,24.60
2023-05-16T15:51:28.149Z,24.60
2023-05-16T15:53:54.820Z,24.60
2023-05-16T15:56:21.898Z,24.60
2023-05-16T15:58:48.649Z,24.50
2023-05-16T16:01:16.549Z,24.50
2023-05-16T16:03:43.893Z,24.50
2023-05-16T16:06:10.865Z,24.40
2023-05-16T16:08:37.512Z,24.40
2023-05-16T16:11:04.937Z,24.30
2023-05-16T16:13:32.057Z,24.30
2023-05-16T16:15:58.723Z,24.20
2023-05-16T16:18:25.512Z,24.20
2023-05-16T16:20:53.123Z,24.20
2023-05-16T16:23:19.865Z,24.10
2023-05-16T16:25:46.547Z,24.10
2023-05-16T16:28:13.293Z,24.10
2023-05-16T16:30:40.850Z,24.00
2023-05-16T16:33:07.874Z,24.00
2023-05-16T16:35:34.888Z,23.90
2023-05-16T16:38:06.185Z,23.80
2023-05-16T16:40:34.567Z,23.80
2023-05-16T16:43:01.683Z,23.70
2023-05-16T16:45:30.135Z,23.70
2023-05-16T16:47:58.020Z,23.60
2023-05-16T16:50:25.399Z,23.50
2023-05-16T16:52:53.990Z,23.40
2023-05-16T16:55:21.368Z,23.40
2023-05-16T16:57:48.017Z,23.30
2023-05-16T17:00:15.432Z,23.30
2023-05-16T17:02:42.323Z,23.20
2023-05-16T17:05:10.593Z,23.10
2023-05-16T17:07:37.674Z,23.10
2023-05-16T17:10:05.094Z,23.00
2023-05-16T17:12:34.691Z,22.90
2023-05-16T17:15:02.467Z,22.90
2023-05-16T17:17:29.410Z,22.80
2023-05-16T17:19:56.331Z,22.70
2023-05-16T17:22:23.091Z,22.70
2023-05-16T17:24:50.024Z,22.60
2023-05-16T17:27:17.182Z,22.50
2023-05-16T17:29:43.892Z,22.50
2023-05-16T17:32:10.906Z,22.40
2023-05-16T17:34:37.796Z,22.30
2023-05-16T17:37:06.524Z,22.30
2023-05-16T17:39:34.236Z,22.20
2023-05-16T17:42:00.998Z,22.10
2023-05-16T17:44:27.898Z,22.10
2023-05-16T17:46:54.782Z,22.00
2023-05-16T17:49:21.851Z,21.90
2023-05-16T17:51:53.325Z,21.90
2023-05-16T17:54:21.611Z,21.80
2023-05-16T17:56:50.507Z,21.70
2023-05-16T17:59:18.164Z,21.70
2023-05-16T18:01:45.231Z,21.60
2023-05-16T18:04:13.305Z,21.60
2023-05-16T18:06:41.092Z,21.50
2023-05-16T18:09:10.009Z,21.50
2023-05-16T18:11:39.135Z,21.40
2023-05-16T18:14:05.979Z,21.30
2023-05-16T18:16:33.093Z,21.30
2023-05-16T18:19:00.139Z,21.20
2023-05-16T18:21:27.852Z,21.20
2023-05-16T18:23:56.477Z,21.10
2023-05-16T18:26:25.017Z,21.10
2023-05-16T18:28:51.772Z,21.00
2023-05-16T18:31:18.836Z,21.00
2023-05-16T18:33:45.638Z,20.90
2023-05-16T18:36:12.428Z,20.90
2023-05-16T18:38:39.340Z,20.80
2023-05-16T18:41:06.516Z,20.80
2023-05-16T18:43:35.522Z,20.70
2023-05-16T18:46:03.422Z,20.70
2023-05-16T18:48:30.270Z,20.60
2023-05-16T18:50:57.173Z,20.60
2023-05-16T18:53:23.984Z,20.50
2023-05-16T18:55:50.926Z,20.40
2023-05-16T18:58:17.743Z,20.40
2023-05-16T19:00:44.700Z,20.30
2023-05-16T19:03:13.261Z,20.30
2023-05-16T19:05:40.351Z,20.20
2023-05-16T19:08:07.235Z,20.20
2023-05-16T19:10:38.122Z,20.10
2023-05-16T19:13:08.943Z,20.10
2023-05-16T19:15:37.358Z,20.00
2023-05-16T19:18:04.948Z,20.00
2023-05-16T19:20:33.632Z,19.90
2023-05-16T19:23:01.015Z,19.90
2023-05-16T19:25:28.143Z,19.80
2023-05-16T19:27:54.912Z,19.80
2023-05-16T19:30:21.830Z,19.70
2023-05-16T19:32:48.593Z,19.70
2023-05-16T19:35:15.307Z,19.60
2023-05-16T19:37:41.961Z,19.60
2023-05-16T19:40:08.908Z,19.50
2023-05-16T19:42:35.719Z,19.50
2023-05-16T19:45:02.362Z,19.40
2023-05-16T19:47:29.126Z,19.30
2023-05-16T19:49:56.091Z,19.30
2023-05-16T19:52:22.781Z,19.20
2023-05-16T19:54:49.480Z,19.20
2023-05-16T19:57:16.045Z,19.10
2023-05-16T19:59:42.751Z,19.10
2023-05-16T20:02:09.388Z,19.10
2023-05-16T20:04:36.038Z,19.00
2023-05-16T20:07:02.732Z,18.90
2023-05-16T20:09:29.738Z,18.90
2023-05-16T20:11:57.484Z,18.80
2023-05-16T20:14:24.281Z,18.80
2023-05-16T20:16:51.474Z,18.70
2023-05-16T20:19:19.357Z,18.70
2023-05-16T20:21:46.349Z,18.60
2023-05-16T20:24:13.736Z,18.50
2023-05-16T20:26:40.643Z,18.50
2023-05-16T20:29:07.541Z,18.40
2023-05-16T20:31:34.668Z,18.40
2023-05-16T20:34:04.481Z,18.30
2023-05-16T20:36:31.285Z,18.30
2023-05-16T20:38:58.102Z,18.20
2023-05-16T20:41:24.773Z,18.20
2023-05-16T20:43:51.745Z,18.10
2023-05-16T20:46:18.564Z,18.10
2023-05-16T20:48:45.425Z,18.00
2023-05-16T20:51:12.171Z,18.00
2023-05-16T20:53:38.814Z,17.90
2023-05-16T20:56:05.780Z,17.90
2023-05-16T20:58:32.574Z,17.80
2023-05-16T21:00:59.325Z,17.80
2023-05-16T21:03:25.978Z,17.80
2023-05-16T21:05:52.778Z,17.70
2023-05-16T21:08:19.497Z,17.70
2023-05-16T21:10:46.229Z,17.60
2023-05-16T21:13:12.948Z,17.60
2023-05-16T21:15:39.840Z,17.50
2023-05-16T21:18:06.850Z,17.50
2023-05-16T21:20:33.661Z,17.50
2023-05-16T21:23:00.398Z,17.40
2023-05-16T21:25:27.277Z,17.40
2023-05-16T21:27:54.152Z,17.30
2023-05-16T21:30:20.949Z,17.30
2023-05-16T21:32:47.693Z,17.30
2023-05-16T21:35:14.559Z,17.20
2023-05-16T21:37:41.249Z,17.20
2023-05-16T21:40:09.514Z,17.10
2023-05-16T21:42:36.781Z,17.10
2023-05-16T21:45:03.652Z,17.00
2023-05-16T21:47:30.446Z,17.00
2023-05-16T21:49:57.088Z,17.00
2023-05-16T21:52:23.816Z,16.90
2023-05-16T21:54:51.993Z,16.90
2023-05-16T21:57:19.659Z,16.80
2023-05-16T21:59:46.521Z,16.80
2023-05-16T22:02:13.288Z,16.80
2023-05-16T22:04:39.950Z,16.70
2023-05-16T22:07:06.922Z,16.70
2023-05-16T22:09:33.696Z,16.60
2023-05-16T22:12:00.464Z,16.60
2023-05-16T22:14:27.136Z,16.60
2023-05-16T22:16:53.827Z,16.50
2023-05-16T22:19:20.684Z,16.50
2023-05-16T22:21:47.394Z,16.40
2023-05-16T22:24:14.046Z,16.40
2023-05-16T22:26:40.832Z,16.30
2023-05-16T22:29:07.754Z,16.30
2023-05-16T22:31:34.567Z,16.30
2023-05-16T22:34:01.796Z,16.20
2023-05-16T22:36:29.778Z,16.20
2023-05-16T22:38:56.498Z,16.20
2023-05-16T22:41:23.268Z,16.10
2023-05-16T22:43:50.014Z,16.10
2023-05-16T22:46:16.637Z,16.10
2023-05-16T22:48:43.448Z,16.00
2023-05-16T22:51:10.241Z,16.00
2023-05-16T22:53:37.121Z,15.90
2023-05-16T22:56:03.975Z,15.90
2023-05-16T22:58:30.818Z,15.90
2023-05-16T23:00:58.169Z,15.80
2023-05-16T23:03:25.373Z,15.80
2023-05-16T23:05:52.113Z,15.80
2023-05-16T23:08:18.773Z,15.70
2023-05-16T23:10:45.697Z,15.70
2023-05-16T23:13:12.440Z,15.60
2023-05-16T23:15:39.342Z,15.60
2023-05-16T23:18:06.395Z,15.60
2023-05-16T23:20:33.313Z,15.50
2023-05-16T23:23:00.040Z,15.50
2023-05-16T23:25:26.877Z,15.50
2023-05-16T23:27:57.606Z,15.40
2023-05-16T23:30:24.894Z,15.40
2023-05-16T23:32:51.779Z,15.40
2023-05-16T23:35:18.619Z,15.30
2023-05-16T23:37:45.584Z,15.30
2023-05-16T23:40:12.629Z,15.20
2023-05-16T23:42:42.187Z,15.20
2023-05-16T23:45:10.432Z,15.20
2023-05-16T23:47:37.229Z,15.10
2023-05-16T23:50:04.294Z,15.10
2023-05-16T23:52:31.016Z,15.10
2023-05-16T23:54:57.656Z,15.10
2023-05-16T23:57:24.292Z,15.00
2023-05-16T23:59:51.170Z,15.00
